sensor_id;sensor_type;location;lat;lon;timestamp;temperature;humidity
32895;DHT22;19251;49.484;8.260;2023-02-01T00:02:56;9.60;28.10
32895;DHT22;19251;49.484;8.260;2023-02-01T00:07:58;9.40;28.00
32895;DHT22;19251;49.484;8.260;2023-02-01T00:13:00;9.60;28.20
32895;DHT22;19251;49.484;8.260;2023-02-01T00:18:02;9.60;28.20
32895;DHT22;19251;49.484;8.260;2023-02-01T00:23:05;9.60;28.20
32895;DHT22;19251;49.484;8.260;2023-02-01T00:28:09;9.60;28.30
32895;DHT22;19251;49.484;8.260;2023-02-01T00:33:11;9.60;28.30
32895;DHT22;19251;49.484;8.260;2023-02-01T00:38:13;9.60;28.30
32895;DHT22;19251;49.484;8.260;2023-02-01T00:43:15;9.50;28.20
32895;DHT22;19251;49.484;8.260;2023-02-01T00:48:17;9.60;28.30
32895;DHT22;19251;49.484;8.260;2023-02-01T00:53:19;9.70;28.40
32895;DHT22;19251;49.484;8.260;2023-02-01T00:58:21;9.60;28.30
32895;DHT22;19251;49.484;8.260;2023-02-01T01:03:25;9.60;28.80
32895;DHT22;19251;49.484;8.260;2023-02-01T01:08:27;9.50;28.20
32895;DHT22;19251;49.484;8.260;2023-02-01T01:13:30;9.60;28.30
32895;DHT22;19251;49.484;8.260;2023-02-01T01:18:32;9.70;28.90
32895;DHT22;19251;49.484;8.260;2023-02-01T01:23:35;9.70;28.30
32895;DHT22;19251;49.484;8.260;2023-02-01T01:28:37;9.60;28.20
32895;DHT22;19251;49.484;8.260;2023-02-01T01:33:40;9.70;28.30
32895;DHT22;19251;49.484;8.260;2023-02-01T01:38:42;9.70;28.30
32895;DHT22;19251;49.484;8.260;2023-02-01T01:43:49;9.90;28.40
32895;DHT22;19251;49.484;8.260;2023-02-01T01:48:54;9.70;28.30
32895;DHT22;19251;49.484;8.260;2023-02-01T01:59:09;9.60;28.20
32895;DHT22;19251;49.484;8.260;2023-02-01T02:04:12;9.70;28.20
32895;DHT22;19251;49.484;8.260;2023-02-01T02:09:14;9.70;28.20
32895;DHT22;19251;49.484;8.260;2023-02-01T02:14:17;9.70;28.10
32895;DHT22;19251;49.484;8.260;2023-02-01T02:30:02;9.70;28.10
32895;DHT22;19251;49.484;8.260;2023-02-01T02:35:21;9.70;28.20
32895;DHT22;19251;49.484;8.260;2023-02-01T02:40:32;9.70;28.20
32895;DHT22;19251;49.484;8.260;2023-02-01T02:45:42;9.70;28.30
32895;DHT22;19251;49.484;8.260;2023-02-01T02:51:06;9.80;28.40
32895;DHT22;19251;49.484;8.260;2023-02-01T02:56:28;9.80;28.40
32895;DHT22;19251;49.484;8.260;2023-02-01T03:01:49;9.80;28.30
32895;DHT22;19251;49.484;8.260;2023-02-01T03:12:33;10.20;27.80
32895;DHT22;19251;49.484;8.260;2023-02-01T03:17:56;9.80;28.30
32895;DHT22;19251;49.484;8.260;2023-02-01T03:22:59;9.80;28.20
32895;DHT22;19251;49.484;8.260;2023-02-01T03:28:07;9.90;28.20
32895;DHT22;19251;49.484;8.260;2023-02-01T03:33:15;11.10;28.20
32895;DHT22;19251;49.484;8.260;2023-02-01T03:38:38;10.00;27.30
32895;DHT22;19251;49.484;8.260;2023-02-01T03:43:46;10.00;27.00
32895;DHT22;19251;49.484;8.260;2023-02-01T03:48:50;9.90;27.70
32895;DHT22;19251;49.484;8.260;2023-02-01T03:53:53;10.00;26.90
32895;DHT22;19251;49.484;8.260;2023-02-01T03:58:57;10.00;26.90
32895;DHT22;19251;49.484;8.260;2023-02-01T04:04:02;10.00;26.90
32895;DHT22;19251;49.484;8.260;2023-02-01T04:09:06;10.00;26.60
32895;DHT22;19251;49.484;8.260;2023-02-01T04:14:08;10.10;26.70
32895;DHT22;19251;49.484;8.260;2023-02-01T04:19:11;10.10;26.50
32895;DHT22;19251;49.484;8.260;2023-02-01T04:24:13;10.00;26.30
32895;DHT22;19251;49.484;8.260;2023-02-01T04:29:15;9.90;27.70
32895;DHT22;19251;49.484;8.260;2023-02-01T04:34:17;10.10;26.30
32895;DHT22;19251;49.484;8.260;2023-02-01T04:39:19;10.00;26.10
32895;DHT22;19251;49.484;8.260;2023-02-01T04:44:21;10.10;26.10
32895;DHT22;19251;49.484;8.260;2023-02-01T04:49:23;10.20;26.80
32895;DHT22;19251;49.484;8.260;2023-02-01T04:54:27;10.10;26.10
32895;DHT22;19251;49.484;8.260;2023-02-01T04:59:29;10.00;25.90
32895;DHT22;19251;49.484;8.260;2023-02-01T05:04:31;10.00;26.30
32895;DHT22;19251;49.484;8.260;2023-02-01T05:09:33;10.00;26.40
32895;DHT22;19251;49.484;8.260;2023-02-01T05:14:35;9.90;27.50
32895;DHT22;19251;49.484;8.260;2023-02-01T05:19:37;9.90;27.60
32895;DHT22;19251;49.484;8.260;2023-02-01T05:24:39;9.80;27.70
32895;DHT22;19251;49.484;8.260;2023-02-01T05:29:41;9.80;27.60
32895;DHT22;19251;49.484;8.260;2023-02-01T05:34:43;9.70;27.70
32895;DHT22;19251;49.484;8.260;2023-02-01T05:39:45;9.80;27.80
32895;DHT22;19251;49.484;8.260;2023-02-01T05:44:47;9.70;27.80
32895;DHT22;19251;49.484;8.260;2023-02-01T05:49:49;9.70;27.80
32895;DHT22;19251;49.484;8.260;2023-02-01T05:54:52;9.60;27.70
32895;DHT22;19251;49.484;8.260;2023-02-01T05:59:54;9.70;27.80
32895;DHT22;19251;49.484;8.260;2023-02-01T06:04:56;9.70;27.80
32895;DHT22;19251;49.484;8.260;2023-02-01T06:09:58;9.70;27.70
32895;DHT22;19251;49.484;8.260;2023-02-01T06:15:00;9.70;27.80
32895;DHT22;19251;49.484;8.260;2023-02-01T06:20:03;9.60;27.80
32895;DHT22;19251;49.484;8.260;2023-02-01T06:25:06;9.70;27.80
32895;DHT22;19251;49.484;8.260;2023-02-01T06:30:08;9.60;27.90
32895;DHT22;19251;49.484;8.260;2023-02-01T06:35:11;9.60;27.90
32895;DHT22;19251;49.484;8.260;2023-02-01T06:40:17;9.60;28.10
32895;DHT22;19251;49.484;8.260;2023-02-01T06:45:19;9.50;28.20
32895;DHT22;19251;49.484;8.260;2023-02-01T06:50:21;9.50;28.10
32895;DHT22;19251;49.484;8.260;2023-02-01T06:55:24;9.50;27.90
32895;DHT22;19251;49.484;8.260;2023-02-01T07:00:26;9.40;27.50
32895;DHT22;19251;49.484;8.260;2023-02-01T07:05:28;9.30;27.40
32895;DHT22;19251;49.484;8.260;2023-02-01T07:10:30;9.30;27.30
32895;DHT22;19251;49.484;8.260;2023-02-01T07:15:32;9.30;27.20
32895;DHT22;19251;49.484;8.260;2023-02-01T07:20:34;9.30;27.20
32895;DHT22;19251;49.484;8.260;2023-02-01T07:25:36;9.20;27.20
32895;DHT22;19251;49.484;8.260;2023-02-01T07:30:38;9.20;27.50
32895;DHT22;19251;49.484;8.260;2023-02-01T07:35:40;9.20;27.50
32895;DHT22;19251;49.484;8.260;2023-02-01T07:40:42;9.20;27.50
32895;DHT22;19251;49.484;8.260;2023-02-01T07:45:49;9.00;27.30
32895;DHT22;19251;49.484;8.260;2023-02-01T07:51:01;9.20;27.40
32895;DHT22;19251;49.484;8.260;2023-02-01T07:56:13;9.20;27.50
32895;DHT22;19251;49.484;8.260;2023-02-01T08:01:20;9.20;27.40
32895;DHT22;19251;49.484;8.260;2023-02-01T08:06:31;9.30;27.50
32895;DHT22;19251;49.484;8.260;2023-02-01T08:11:34;9.20;27.60
32895;DHT22;19251;49.484;8.260;2023-02-01T08:16:38;9.30;27.70
32895;DHT22;19251;49.484;8.260;2023-02-01T08:21:41;9.40;27.50
32895;DHT22;19251;49.484;8.260;2023-02-01T08:26:43;9.50;27.40
32895;DHT22;19251;49.484;8.260;2023-02-01T08:31:45;9.60;27.20
32895;DHT22;19251;49.484;8.260;2023-02-01T08:36:47;9.70;27.30
32895;DHT22;19251;49.484;8.260;2023-02-01T08:41:49;9.80;27.20
32895;DHT22;19251;49.484;8.260;2023-02-01T08:47:11;9.90;27.10
32895;DHT22;19251;49.484;8.260;2023-02-01T08:52:13;9.80;26.70
32895;DHT22;19251;49.484;8.260;2023-02-01T08:57:17;10.00;25.80
32895;DHT22;19251;49.484;8.260;2023-02-01T09:02:20;10.00;25.40
32895;DHT22;19251;49.484;8.260;2023-02-01T09:07:22;10.10;25.50
32895;DHT22;19251;49.484;8.260;2023-02-01T09:12:24;10.20;25.20
32895;DHT22;19251;49.484;8.260;2023-02-01T09:17:26;10.30;25.10
32895;DHT22;19251;49.484;8.260;2023-02-01T09:22:33;10.30;24.70
32895;DHT22;19251;49.484;8.260;2023-02-01T09:27:35;10.40;25.40
32895;DHT22;19251;49.484;8.260;2023-02-01T09:32:37;10.50;24.30
32895;DHT22;19251;49.484;8.260;2023-02-01T09:37:39;10.50;24.20
32895;DHT22;19251;49.484;8.260;2023-02-01T09:48:14;10.70;23.10
32895;DHT22;19251;49.484;8.260;2023-02-01T10:03:32;10.80;22.70
32895;DHT22;19251;49.484;8.260;2023-02-01T10:29:15;10.70;22.00
32895;DHT22;19251;49.484;8.260;2023-02-01T10:34:26;10.60;21.70
32895;DHT22;19251;49.484;8.260;2023-02-01T10:39:28;10.60;21.30
32895;DHT22;19251;49.484;8.260;2023-02-01T10:44:31;10.60;21.30
32895;DHT22;19251;49.484;8.260;2023-02-01T10:49:37;10.70;21.40
32895;DHT22;19251;49.484;8.260;2023-02-01T10:54:40;10.70;21.30
32895;DHT22;19251;49.484;8.260;2023-02-01T10:59:42;10.60;21.00
32895;DHT22;19251;49.484;8.260;2023-02-01T11:04:46;10.70;21.10
32895;DHT22;19251;49.484;8.260;2023-02-01T11:09:50;10.80;20.90
32895;DHT22;19251;49.484;8.260;2023-02-01T11:14:56;10.90;20.50
32895;DHT22;19251;49.484;8.260;2023-02-01T11:20:06;10.90;20.60
32895;DHT22;19251;49.484;8.260;2023-02-01T11:25:09;10.90;20.40
32895;DHT22;19251;49.484;8.260;2023-02-01T11:30:18;11.00;20.20
32895;DHT22;19251;49.484;8.260;2023-02-01T11:35:21;11.10;20.20
32895;DHT22;19251;49.484;8.260;2023-02-01T11:40:36;11.10;20.20
32895;DHT22;19251;49.484;8.260;2023-02-01T11:45:39;11.10;20.20
32895;DHT22;19251;49.484;8.260;2023-02-01T11:56:02;11.10;20.20
32895;DHT22;19251;49.484;8.260;2023-02-01T12:01:12;11.10;20.00
32895;DHT22;19251;49.484;8.260;2023-02-01T12:11:41;11.50;19.80
32895;DHT22;19251;49.484;8.260;2023-02-01T12:37:21;11.20;19.10
32895;DHT22;19251;49.484;8.260;2023-02-01T12:42:59;11.20;18.90
32895;DHT22;19251;49.484;8.260;2023-02-01T12:48:16;11.20;18.90
32895;DHT22;19251;49.484;8.260;2023-02-01T12:53:25;11.10;18.80
32895;DHT22;19251;49.484;8.260;2023-02-01T12:58:42;11.00;18.80
32895;DHT22;19251;49.484;8.260;2023-02-01T13:04:06;10.90;18.60
32895;DHT22;19251;49.484;8.260;2023-02-01T13:09:24;11.00;18.70
32895;DHT22;19251;49.484;8.260;2023-02-01T13:14:49;11.00;18.60
32895;DHT22;19251;49.484;8.260;2023-02-01T13:19:59;11.10;18.70
32895;DHT22;19251;49.484;8.260;2023-02-01T13:25:11;11.10;18.60
32895;DHT22;19251;49.484;8.260;2023-02-01T13:30:18;11.30;18.80
32895;DHT22;19251;49.484;8.260;2023-02-01T13:45:33;11.80;17.30
32895;DHT22;19251;49.484;8.260;2023-02-01T13:50:37;11.70;17.60
32895;DHT22;19251;49.484;8.260;2023-02-01T13:55:41;11.70;17.50
32895;DHT22;19251;49.484;8.260;2023-02-01T14:00:44;11.90;17.60
32895;DHT22;19251;49.484;8.260;2023-02-01T14:31:31;12.50;16.90
32895;DHT22;19251;49.484;8.260;2023-02-01T14:36:41;12.60;15.60
32895;DHT22;19251;49.484;8.260;2023-02-01T14:41:46;12.50;15.70
32895;DHT22;19251;49.484;8.260;2023-02-01T14:47:05;12.50;15.80
32895;DHT22;19251;49.484;8.260;2023-02-01T14:52:09;12.40;15.10
32895;DHT22;19251;49.484;8.260;2023-02-01T14:57:15;12.20;14.90
32895;DHT22;19251;49.484;8.260;2023-02-01T15:02:23;11.90;15.00
32895;DHT22;19251;49.484;8.260;2023-02-01T15:07:28;11.60;15.10
32895;DHT22;19251;49.484;8.260;2023-02-01T15:12:31;11.80;15.70
32895;DHT22;19251;49.484;8.260;2023-02-01T15:17:34;11.30;15.50
32895;DHT22;19251;49.484;8.260;2023-02-01T15:27:39;11.40;16.10
32895;DHT22;19251;49.484;8.260;2023-02-01T15:32:41;11.10;16.00
32895;DHT22;19251;49.484;8.260;2023-02-01T15:37:43;11.10;16.10
32895;DHT22;19251;49.484;8.260;2023-02-01T15:42:49;11.00;16.20
32895;DHT22;19251;49.484;8.260;2023-02-01T15:47:53;11.10;16.40
32895;DHT22;19251;49.484;8.260;2023-02-01T15:52:56;10.90;16.40
32895;DHT22;19251;49.484;8.260;2023-02-01T15:57:58;10.90;16.50
32895;DHT22;19251;49.484;8.260;2023-02-01T16:03:00;10.80;16.80
32895;DHT22;19251;49.484;8.260;2023-02-01T16:13:09;10.70;17.10
32895;DHT22;19251;49.484;8.260;2023-02-01T16:18:12;10.70;17.10
32895;DHT22;19251;49.484;8.260;2023-02-01T16:23:16;10.60;17.30
32895;DHT22;19251;49.484;8.260;2023-02-01T16:28:18;10.60;17.40
32895;DHT22;19251;49.484;8.260;2023-02-01T16:33:20;10.50;17.60
32895;DHT22;19251;49.484;8.260;2023-02-01T16:38:23;10.50;17.70
32895;DHT22;19251;49.484;8.260;2023-02-01T16:43:25;10.30;17.80
32895;DHT22;19251;49.484;8.260;2023-02-01T16:48:29;10.40;18.00
32895;DHT22;19251;49.484;8.260;2023-02-01T16:53:31;10.30;18.10
32895;DHT22;19251;49.484;8.260;2023-02-01T16:58:43;10.20;18.40
32895;DHT22;19251;49.484;8.260;2023-02-01T17:03:45;10.20;18.30
32895;DHT22;19251;49.484;8.260;2023-02-01T17:08:50;10.30;18.40
32895;DHT22;19251;49.484;8.260;2023-02-01T17:13:52;10.10;18.40
32895;DHT22;19251;49.484;8.260;2023-02-01T17:19:12;10.30;18.50
32895;DHT22;19251;49.484;8.260;2023-02-01T17:24:16;10.20;18.50
32895;DHT22;19251;49.484;8.260;2023-02-01T17:29:19;10.20;18.60
32895;DHT22;19251;49.484;8.260;2023-02-01T17:34:21;10.10;18.50
32895;DHT22;19251;49.484;8.260;2023-02-01T17:39:23;10.20;18.70
32895;DHT22;19251;49.484;8.260;2023-02-01T17:44:56;10.20;18.60
32895;DHT22;19251;49.484;8.260;2023-02-01T17:49:59;10.10;18.80
32895;DHT22;19251;49.484;8.260;2023-02-01T17:55:01;10.10;18.80
32895;DHT22;19251;49.484;8.260;2023-02-01T18:00:06;10.10;18.90
32895;DHT22;19251;49.484;8.260;2023-02-01T18:05:17;10.00;18.90
32895;DHT22;19251;49.484;8.260;2023-02-01T18:10:20;10.00;19.10
32895;DHT22;19251;49.484;8.260;2023-02-01T18:15:23;10.00;19.40
32895;DHT22;19251;49.484;8.260;2023-02-01T18:20:26;9.90;20.20
32895;DHT22;19251;49.484;8.260;2023-02-01T18:25:29;9.90;20.40
32895;DHT22;19251;49.484;8.260;2023-02-01T18:30:35;9.90;20.70
32895;DHT22;19251;49.484;8.260;2023-02-01T18:35:37;9.90;20.80
32895;DHT22;19251;49.484;8.260;2023-02-01T18:45:42;9.90;20.80
32895;DHT22;19251;49.484;8.260;2023-02-01T18:50:48;9.90;21.00
32895;DHT22;19251;49.484;8.260;2023-02-01T18:55:53;9.90;21.00
32895;DHT22;19251;49.484;8.260;2023-02-01T19:00:57;9.90;21.10
32895;DHT22;19251;49.484;8.260;2023-02-01T19:05:59;9.90;21.40
32895;DHT22;19251;49.484;8.260;2023-02-01T19:11:05;9.90;21.40
32895;DHT22;19251;49.484;8.260;2023-02-01T19:16:11;9.80;21.60
32895;DHT22;19251;49.484;8.260;2023-02-01T19:21:14;9.80;21.50
32895;DHT22;19251;49.484;8.260;2023-02-01T19:26:16;9.90;21.60
32895;DHT22;19251;49.484;8.260;2023-02-01T19:31:19;9.80;21.50
32895;DHT22;19251;49.484;8.260;2023-02-01T19:36:21;9.80;22.00
32895;DHT22;19251;49.484;8.260;2023-02-01T19:41:23;9.80;22.60
32895;DHT22;19251;49.484;8.260;2023-02-01T19:46:25;9.80;22.00
32895;DHT22;19251;49.484;8.260;2023-02-01T19:51:27;10.00;21.10
32895;DHT22;19251;49.484;8.260;2023-02-01T19:56:29;9.90;21.80
32895;DHT22;19251;49.484;8.260;2023-02-01T20:01:32;9.90;21.80
32895;DHT22;19251;49.484;8.260;2023-02-01T20:06:36;9.90;21.70
32895;DHT22;19251;49.484;8.260;2023-02-01T20:11:40;10.00;21.00
32895;DHT22;19251;49.484;8.260;2023-02-01T20:16:42;10.00;21.00
32895;DHT22;19251;49.484;8.260;2023-02-01T20:21:44;9.90;21.70
32895;DHT22;19251;49.484;8.260;2023-02-01T20:26:46;9.90;21.70
32895;DHT22;19251;49.484;8.260;2023-02-01T20:31:50;10.00;21.00
32895;DHT22;19251;49.484;8.260;2023-02-01T20:36:52;10.00;20.90
32895;DHT22;19251;49.484;8.260;2023-02-01T20:41:54;10.00;20.80
32895;DHT22;19251;49.484;8.260;2023-02-01T20:46:57;10.00;20.80
32895;DHT22;19251;49.484;8.260;2023-02-01T20:51:59;10.00;20.90
32895;DHT22;19251;49.484;8.260;2023-02-01T20:57:02;10.10;21.10
32895;DHT22;19251;49.484;8.260;2023-02-01T21:02:04;10.10;21.00
32895;DHT22;19251;49.484;8.260;2023-02-01T21:07:06;10.20;21.00
32895;DHT22;19251;49.484;8.260;2023-02-01T21:12:08;10.30;21.00
32895;DHT22;19251;49.484;8.260;2023-02-01T21:17:10;10.30;21.60
32895;DHT22;19251;49.484;8.260;2023-02-01T21:22:13;10.40;20.90
32895;DHT22;19251;49.484;8.260;2023-02-01T21:27:15;10.40;20.80
32895;DHT22;19251;49.484;8.260;2023-02-01T21:32:17;10.40;20.80
32895;DHT22;19251;49.484;8.260;2023-02-01T21:37:19;10.40;20.90
32895;DHT22;19251;49.484;8.260;2023-02-01T21:42:27;10.50;21.00
32895;DHT22;19251;49.484;8.260;2023-02-01T21:47:29;10.50;21.00
32895;DHT22;19251;49.484;8.260;2023-02-01T21:52:31;10.50;21.10
32895;DHT22;19251;49.484;8.260;2023-02-01T21:57:34;10.60;21.10
32895;DHT22;19251;49.484;8.260;2023-02-01T22:02:36;10.60;21.10
32895;DHT22;19251;49.484;8.260;2023-02-01T22:07:38;10.60;21.10
32895;DHT22;19251;49.484;8.260;2023-02-01T22:12:40;10.70;21.10
32895;DHT22;19251;49.484;8.260;2023-02-01T22:17:42;10.70;21.20
32895;DHT22;19251;49.484;8.260;2023-02-01T22:22:46;10.70;21.10
32895;DHT22;19251;49.484;8.260;2023-02-01T22:27:49;10.80;21.20
32895;DHT22;19251;49.484;8.260;2023-02-01T22:33:11;10.80;21.10
32895;DHT22;19251;49.484;8.260;2023-02-01T22:38:14;10.80;21.10
32895;DHT22;19251;49.484;8.260;2023-02-01T22:43:16;10.80;21.10
32895;DHT22;19251;49.484;8.260;2023-02-01T22:48:19;10.80;21.10
32895;DHT22;19251;49.484;8.260;2023-02-01T22:53:21;10.90;21.20
32895;DHT22;19251;49.484;8.260;2023-02-01T22:58:23;10.90;21.20
32895;DHT22;19251;49.484;8.260;2023-02-01T23:03:25;10.90;21.20
32895;DHT22;19251;49.484;8.260;2023-02-01T23:08:27;10.90;21.30
32895;DHT22;19251;49.484;8.260;2023-02-01T23:13:30;10.90;21.30
32895;DHT22;19251;49.484;8.260;2023-02-01T23:18:32;10.90;21.30
32895;DHT22;19251;49.484;8.260;2023-02-01T23:23:34;10.90;21.40
32895;DHT22;19251;49.484;8.260;2023-02-01T23:28:36;10.80;21.50
32895;DHT22;19251;49.484;8.260;2023-02-01T23:33:39;10.80;21.60
32895;DHT22;19251;49.484;8.260;2023-02-01T23:38:44;11.00;21.90
32895;DHT22;19251;49.484;8.260;2023-02-01T23:43:46;10.80;21.80
32895;DHT22;19251;49.484;8.260;2023-02-01T23:49:02;10.90;21.80
32895;DHT22;19251;49.484;8.260;2023-02-01T23:54:05;10.90;21.90
32895;DHT22;19251;49.484;8.260;2023-02-01T23:59:15;11.10;22.10
